createdAt,value
2023-02-11T00:00:17.359Z,74.30
2023-02-11T00:02:47.493Z,74.40
2023-02-11T00:05:14.778Z,74.30
2023-02-11T00:07:41.681Z,74.50
2023-02-11T00:10:09.296Z,74.50
2023-02-11T00:12:37.416Z,74.60
2023-02-11T00:15:05.973Z,74.60
2023-02-11T00:17:32.971Z,74.70
2023-02-11T00:19:59.744Z,74.90
2023-02-11T00:22:26.638Z,75.10
2023-02-11T00:24:53.497Z,75.10
2023-02-11T00:27:20.301Z,75.10
2023-02-11T00:29:47.027Z,75.30
2023-02-11T00:32:13.777Z,75.50
2023-02-11T00:34:40.572Z,75.50
2023-02-11T00:37:07.290Z,75.50
2023-02-11T00:39:34.349Z,75.70
2023-02-11T00:42:03.526Z,76.00
2023-02-11T00:44:30.364Z,76.40
2023-02-11T00:46:57.104Z,76.50
2023-02-11T00:49:25.244Z,76.40
2023-02-11T00:51:51.926Z,76.40
2023-02-11T00:54:20.109Z,76.40
2023-02-11T00:56:46.838Z,76.20
2023-02-11T00:59:13.699Z,76.20
2023-02-11T01:01:40.543Z,76.20
2023-02-11T01:04:08.806Z,76.50
2023-02-11T01:06:35.832Z,76.50
2023-02-11T01:09:02.604Z,76.70
2023-02-11T01:11:29.297Z,76.60
2023-02-11T01:13:56.384Z,76.80
2023-02-11T01:16:23.222Z,76.70
2023-02-11T01:18:51.683Z,76.90
2023-02-11T01:21:19.088Z,77.00
2023-02-11T01:23:45.817Z,77.20
2023-02-11T01:26:12.754Z,77.30
2023-02-11T01:28:40.029Z,77.30
2023-02-11T01:31:06.927Z,77.30
2023-02-11T01:33:33.757Z,77.50
2023-02-11T01:36:05.225Z,77.60
2023-02-11T01:38:33.731Z,77.80
2023-02-11T01:41:04.775Z,77.80
2023-02-11T01:43:35.023Z,78.20
2023-02-11T01:46:14.497Z,78.30
2023-02-11T01:48:45.049Z,78.60
2023-02-11T01:51:25.052Z,78.90
2023-02-11T01:54:12.458Z,79.00
2023-02-11T01:57:02.972Z,79.00
2023-02-11T01:59:34.685Z,79.00
2023-02-11T02:02:07.977Z,79.10
2023-02-11T02:04:42.168Z,79.20
2023-02-11T02:07:16.477Z,79.20
2023-02-11T02:09:49.376Z,79.30
2023-02-11T02:12:16.231Z,79.30
2023-02-11T02:14:43.075Z,79.30
2023-02-11T02:17:38.255Z,79.30
2023-02-11T02:20:39.210Z,79.30
2023-02-11T02:23:22.540Z,79.40
2023-02-11T02:26:07.895Z,79.60
2023-02-11T02:28:47.372Z,79.60
2023-02-11T02:31:38.856Z,79.60
2023-02-11T02:34:38.031Z,79.70
2023-02-11T02:37:30.495Z,79.70
2023-02-11T02:40:01.803Z,79.80
2023-02-11T02:42:28.864Z,80.10
2023-02-11T02:44:56.176Z,80.30
2023-02-11T02:47:22.845Z,80.40
2023-02-11T02:49:49.526Z,80.50
2023-02-11T02:52:46.933Z,80.70
2023-02-11T02:55:53.758Z,80.90
2023-02-11T02:58:38.497Z,81.00
2023-02-11T03:01:20.091Z,81.00
2023-02-11T03:03:55.200Z,81.10
2023-02-11T03:06:45.872Z,81.20
2023-02-11T03:09:25.937Z,81.40
2023-02-11T03:11:53.229Z,81.60
2023-02-11T03:14:24.384Z,81.90
2023-02-11T03:16:54.156Z,82.00
2023-02-11T03:19:26.416Z,82.20
2023-02-11T03:21:54.623Z,82.60
2023-02-11T03:24:27.513Z,83.00
2023-02-11T03:26:56.483Z,83.30
2023-02-11T03:29:39.514Z,83.70
2023-02-11T03:32:16.127Z,84.20
2023-02-11T03:34:56.108Z,84.60
2023-02-11T03:37:45.530Z,84.70
2023-02-11T03:40:26.178Z,84.90
2023-02-11T03:43:03.302Z,85.10
2023-02-11T03:45:30.957Z,85.40
2023-02-11T03:48:04.299Z,85.40
2023-02-11T03:50:33.815Z,85.80
2023-02-11T03:53:02.661Z,85.70
2023-02-11T03:55:31.042Z,85.60
2023-02-11T03:57:57.801Z,85.70
2023-02-11T04:00:39.750Z,86.20
2023-02-11T04:03:07.466Z,86.10
2023-02-11T04:05:34.524Z,85.70
2023-02-11T04:08:01.910Z,85.60
2023-02-11T04:10:28.800Z,85.40
2023-02-11T04:12:55.555Z,85.70
2023-02-11T04:15:23.455Z,85.70
2023-02-11T04:17:50.412Z,85.70
2023-02-11T04:20:17.187Z,85.90
2023-02-11T04:22:43.884Z,86.00
2023-02-11T04:25:11.029Z,85.80
2023-02-11T04:27:38.013Z,86.00
2023-02-11T04:30:06.153Z,85.70
2023-02-11T04:32:32.886Z,85.40
2023-02-11T04:34:59.689Z,85.60
2023-02-11T04:37:26.375Z,85.80
2023-02-11T04:39:53.082Z,85.40
2023-02-11T04:42:19.918Z,85.60
2023-02-11T04:44:46.746Z,85.70
2023-02-11T04:47:15.345Z,85.70
2023-02-11T04:49:42.413Z,85.70
2023-02-11T04:52:09.358Z,85.40
2023-02-11T04:54:36.119Z,85.40
2023-02-11T04:57:02.855Z,85.40
2023-02-11T04:59:29.633Z,84.80
2023-02-11T05:01:56.824Z,84.60
2023-02-11T05:04:23.701Z,84.60
2023-02-11T05:06:50.597Z,84.60
2023-02-11T05:09:17.810Z,84.20
2023-02-11T05:11:44.633Z,84.20
2023-02-11T05:14:11.370Z,84.10
2023-02-11T05:16:38.411Z,84.00
2023-02-11T05:19:05.289Z,83.90
2023-02-11T05:21:32.074Z,84.20
2023-02-11T05:23:58.929Z,84.00
2023-02-11T05:26:25.910Z,83.60
2023-02-11T05:28:52.630Z,83.40
2023-02-11T05:31:19.372Z,83.50
2023-02-11T05:33:46.215Z,83.90
2023-02-11T05:36:13.635Z,83.50
2023-02-11T05:38:40.893Z,82.80
2023-02-11T05:41:07.685Z,83.20
2023-02-11T05:43:37.638Z,83.20
2023-02-11T05:46:05.219Z,82.60
2023-02-11T05:48:32.016Z,82.40
2023-02-11T05:50:59.011Z,82.60
2023-02-11T05:53:26.006Z,82.60
2023-02-11T05:55:53.108Z,82.90
2023-02-11T05:58:19.908Z,82.90
2023-02-11T06:00:46.673Z,82.50
2023-02-11T06:03:13.433Z,82.30
2023-02-11T06:05:40.331Z,82.20
2023-02-11T06:08:07.072Z,82.40
2023-02-11T06:10:33.786Z,82.30
2023-02-11T06:13:02.014Z,82.10
2023-02-11T06:15:28.884Z,81.90
2023-02-11T06:17:55.976Z,81.90
2023-02-11T06:20:22.909Z,82.10
2023-02-11T06:22:49.639Z,82.10
2023-02-11T06:25:16.420Z,81.80
2023-02-11T06:27:43.134Z,81.70
2023-02-11T06:30:10.581Z,81.60
2023-02-11T06:32:44.395Z,82.00
2023-02-11T06:35:12.756Z,81.90
2023-02-11T06:37:40.262Z,82.00
2023-02-11T06:40:07.267Z,82.00
2023-02-11T06:42:36.030Z,81.90
2023-02-11T06:45:03.340Z,82.00
2023-02-11T06:47:30.025Z,81.90
2023-02-11T06:49:56.734Z,81.60
2023-02-11T06:52:23.400Z,81.50
2023-02-11T06:54:50.130Z,81.40
2023-02-11T06:57:16.869Z,81.50
2023-02-11T06:59:43.642Z,81.70
2023-02-11T07:02:10.792Z,82.00
2023-02-11T07:04:38.009Z,81.90
2023-02-11T07:07:04.716Z,81.90
2023-02-11T07:09:31.437Z,81.80
2023-02-11T07:11:58.237Z,81.60
2023-02-11T07:14:24.948Z,81.30
2023-02-11T07:16:51.734Z,81.50
2023-02-11T07:19:18.433Z,81.40
2023-02-11T07:21:45.141Z,81.30
2023-02-11T07:24:13.143Z,81.40
2023-02-11T07:26:40.185Z,81.40
2023-02-11T07:29:07.163Z,81.50
2023-02-11T07:31:34.207Z,81.50
2023-02-11T07:34:01.714Z,81.80
2023-02-11T07:36:29.944Z,82.10
2023-02-11T07:38:56.837Z,81.80
2023-02-11T07:41:24.463Z,81.50
2023-02-11T07:43:51.472Z,81.50
2023-02-11T07:46:24.354Z,81.50
2023-02-11T07:48:51.964Z,81.20
2023-02-11T07:51:24.302Z,81.60
2023-02-11T07:53:52.001Z,81.60
2023-02-11T07:56:20.350Z,81.40
2023-02-11T07:58:47.426Z,81.30
2023-02-11T08:01:19.080Z,81.40
2023-02-11T08:03:46.020Z,81.40
2023-02-11T08:06:15.334Z,81.40
2023-02-11T08:08:43.194Z,81.40
2023-02-11T08:11:15.744Z,81.20
2023-02-11T08:13:42.761Z,81.30
2023-02-11T08:16:16.784Z,81.50
2023-02-11T08:18:43.520Z,81.40
2023-02-11T08:21:10.893Z,81.30
2023-02-11T08:23:42.113Z,81.40
2023-02-11T08:26:12.564Z,81.50
2023-02-11T08:28:41.280Z,81.40
2023-02-11T08:31:10.093Z,81.40
2023-02-11T08:33:36.878Z,81.20
2023-02-11T08:36:36.800Z,81.20
2023-02-11T08:39:19.219Z,81.10
2023-02-11T08:41:53.591Z,81.10
2023-02-11T08:44:21.663Z,81.20
2023-02-11T08:46:49.037Z,81.10
2023-02-11T08:49:16.363Z,81.60
2023-02-11T08:51:44.299Z,81.20
2023-02-11T08:54:11.566Z,81.20
2023-02-11T08:56:38.997Z,81.20
2023-02-11T08:59:06.530Z,81.30
2023-02-11T09:01:34.197Z,81.10
2023-02-11T09:04:01.430Z,81.00
2023-02-11T09:06:28.384Z,81.10
2023-02-11T09:08:57.078Z,81.30
2023-02-11T09:11:31.069Z,81.20
2023-02-11T09:13:58.079Z,80.90
2023-02-11T09:16:28.043Z,80.90
2023-02-11T09:18:57.509Z,81.20
2023-02-11T09:21:24.348Z,81.10
2023-02-11T09:23:51.483Z,80.80
2023-02-11T09:26:21.405Z,80.90
2023-02-11T09:28:48.839Z,80.70
2023-02-11T09:31:19.862Z,80.70
2023-02-11T09:33:49.262Z,80.70
2023-02-11T09:36:21.480Z,80.60
2023-02-11T09:38:49.076Z,80.80
2023-02-11T09:41:40.758Z,80.60
2023-02-11T09:44:16.452Z,80.50
2023-02-11T09:46:44.358Z,80.70
2023-02-11T09:49:23.203Z,80.60
2023-02-11T09:52:00.041Z,80.50
2023-02-11T09:54:34.065Z,80.50
2023-02-11T09:57:00.921Z,80.50
2023-02-11T09:59:27.762Z,80.50
2023-02-11T10:02:01.347Z,80.40
2023-02-11T10:04:55.614Z,80.50
2023-02-11T10:07:40.614Z,80.60
2023-02-11T10:10:19.547Z,80.50
2023-02-11T10:13:13.364Z,80.20
2023-02-11T10:15:50.176Z,80.10
2023-02-11T10:18:54.905Z,80.10
2023-02-11T10:21:46.524Z,79.90
2023-02-11T10:24:15.869Z,80.40
2023-02-11T10:26:44.131Z,80.30
2023-02-11T10:29:42.061Z,80.40
2023-02-11T10:32:35.253Z,80.70
2023-02-11T10:35:10.169Z,80.90
2023-02-11T10:37:37.198Z,81.10
2023-02-11T10:40:04.290Z,81.00
2023-02-11T10:42:31.276Z,81.10
2023-02-11T10:45:04.973Z,80.90
2023-02-11T10:47:37.566Z,80.80
2023-02-11T10:50:25.983Z,80.60
2023-02-11T10:52:53.063Z,80.30
2023-02-11T10:55:24.025Z,80.40
2023-02-11T10:58:00.404Z,80.50
2023-02-11T11:00:40.564Z,80.70
2023-02-11T11:03:20.671Z,80.50
2023-02-11T11:05:53.077Z,80.40
2023-02-11T11:08:20.273Z,80.50
2023-02-11T11:11:08.943Z,81.00
2023-02-11T11:13:51.959Z,81.10
2023-02-11T11:16:26.786Z,80.90
2023-02-11T11:19:21.367Z,80.50
2023-02-11T11:21:57.417Z,80.40
2023-02-11T11:24:34.362Z,80.30
2023-02-11T11:27:03.122Z,80.30
2023-02-11T11:29:45.060Z,80.40
2023-02-11T11:32:20.524Z,80.40
2023-02-11T11:34:54.005Z,80.60
2023-02-11T11:37:25.770Z,80.30
2023-02-11T11:40:17.363Z,80.30
2023-02-11T11:42:44.157Z,80.30
2023-02-11T11:45:19.486Z,80.40
2023-02-11T11:48:12.018Z,80.30
2023-02-11T11:50:50.330Z,80.40
2023-02-11T11:53:50.357Z,80.80
2023-02-11T11:56:21.130Z,80.90
2023-02-11T11:58:48.952Z,80.90
2023-02-11T12:01:45.486Z,80.70
2023-02-11T12:04:53.852Z,80.30
2023-02-11T12:07:43.192Z,80.10
2023-02-11T12:10:31.404Z,80.20
2023-02-11T12:13:17.108Z,80.60
2023-02-11T12:16:19.537Z,80.20
2023-02-11T12:19:32.455Z,80.60
2023-02-11T12:22:17.260Z,80.50
2023-02-11T12:25:17.383Z,80.70
2023-02-11T12:27:56.639Z,80.60
2023-02-11T12:30:58.589Z,80.70
2023-02-11T12:33:52.955Z,80.70
2023-02-11T12:36:54.224Z,81.00
2023-02-11T12:39:26.710Z,81.20
2023-02-11T12:42:25.079Z,81.20
2023-02-11T12:45:04.355Z,81.10
2023-02-11T12:47:59.101Z,81.40
2023-02-11T12:51:03.707Z,81.40
2023-02-11T12:54:00.942Z,81.30
2023-02-11T12:56:38.900Z,81.20
2023-02-11T12:59:14.546Z,81.30
2023-02-11T13:01:43.705Z,81.00
2023-02-11T13:04:31.311Z,81.10
2023-02-11T13:07:05.402Z,81.20
2023-02-11T13:09:41.969Z,81.20
2023-02-11T13:12:32.296Z,81.20
2023-02-11T13:15:06.283Z,81.20
2023-02-11T13:18:06.861Z,81.20
2023-02-11T13:20:44.032Z,81.20
2023-02-11T13:23:35.619Z,81.10
2023-02-11T13:26:28.261Z,81.40
2023-02-11T13:29:04.764Z,81.40
2023-02-11T13:31:32.217Z,81.70
2023-02-11T13:33:59.059Z,81.90
2023-02-11T13:36:28.452Z,82.60
2023-02-11T13:38:59.885Z,82.70
2023-02-11T13:41:40.362Z,82.90
2023-02-11T13:44:09.868Z,82.90
2023-02-11T13:46:53.896Z,83.10
2023-02-11T13:49:42.316Z,83.20
2023-02-11T13:52:21.730Z,82.80
2023-02-11T13:54:51.653Z,82.90
2023-02-11T13:57:21.271Z,82.90
2023-02-11T13:59:49.265Z,82.50
2023-02-11T14:02:47.312Z,82.40
2023-02-11T14:05:47.865Z,82.30
2023-02-11T14:08:44.451Z,82.50
2023-02-11T14:11:33.770Z,82.50
2023-02-11T14:14:30.600Z,82.70
2023-02-11T14:17:00.284Z,82.70
2023-02-11T14:19:41.641Z,82.60
2023-02-11T14:22:19.458Z,83.00
2023-02-11T14:24:59.788Z,82.80
2023-02-11T14:27:38.047Z,82.80
2023-02-11T14:30:22.896Z,82.40
2023-02-11T14:32:57.373Z,82.20
2023-02-11T14:35:38.973Z,81.90
2023-02-11T14:38:10.896Z,81.80
2023-02-11T14:40:55.057Z,81.50
2023-02-11T14:43:29.853Z,81.40
2023-02-11T14:45:58.265Z,81.40
2023-02-11T14:48:31.572Z,81.20
2023-02-11T14:51:23.135Z,81.30
2023-02-11T14:53:53.340Z,81.30
2023-02-11T14:56:26.225Z,81.20
2023-02-11T14:58:54.530Z,81.10
2023-02-11T15:01:30.271Z,81.20
2023-02-11T15:03:59.366Z,81.40
2023-02-11T15:06:32.157Z,81.60
2023-02-11T15:09:16.567Z,81.40
2023-02-11T15:11:45.120Z,81.70
2023-02-11T15:14:27.376Z,81.70
2023-02-11T15:16:57.146Z,81.60
2023-02-11T15:19:34.123Z,81.60
2023-02-11T15:22:04.158Z,81.40
2023-02-11T15:24:35.070Z,81.40
2023-02-11T15:27:16.042Z,81.40
2023-02-11T15:29:51.772Z,81.60
2023-02-11T15:32:21.641Z,81.10
2023-02-11T15:34:51.117Z,81.10
2023-02-11T15:37:32.339Z,80.70
2023-02-11T15:40:16.069Z,80.80
2023-02-11T15:42:58.749Z,80.60
2023-02-11T15:45:42.357Z,80.80
2023-02-11T15:48:30.888Z,80.70
2023-02-11T15:51:01.341Z,80.80
2023-02-11T15:53:40.412Z,80.80
2023-02-11T15:56:14.067Z,80.40
2023-02-11T15:58:44.325Z,80.60
2023-02-11T16:01:12.782Z,80.30
2023-02-11T16:03:41.692Z,80.40
2023-02-11T16:06:26.688Z,80.40
2023-02-11T16:09:06.039Z,80.30
2023-02-11T16:11:35.346Z,80.50
2023-02-11T16:14:18.557Z,80.40
2023-02-11T16:16:50.227Z,80.20
2023-02-11T16:19:25.190Z,80.40
2023-02-11T16:21:53.413Z,80.40
2023-02-11T16:24:32.250Z,80.70
2023-02-11T16:27:01.554Z,80.80
2023-02-11T16:29:34.913Z,80.60
2023-02-11T16:32:10.716Z,80.30
2023-02-11T16:34:37.651Z,80.50
2023-02-11T16:37:06.134Z,80.70
2023-02-11T16:39:33.695Z,80.80
2023-02-11T16:42:01.253Z,80.70
2023-02-11T16:44:28.596Z,80.80
2023-02-11T16:46:58.953Z,80.40
2023-02-11T16:49:40.343Z,80.40
2023-02-11T16:52:12.288Z,80.30
2023-02-11T16:54:39.049Z,80.50
2023-02-11T16:57:14.686Z,80.50
2023-02-11T16:59:41.752Z,80.40
2023-02-11T17:02:18.274Z,80.50
2023-02-11T17:04:45.290Z,79.70
2023-02-11T17:07:12.524Z,79.40
2023-02-11T17:09:39.366Z,79.70
2023-02-11T17:12:06.743Z,79.90
2023-02-11T17:14:33.439Z,80.10
2023-02-11T17:17:01.569Z,79.80
2023-02-11T17:19:28.276Z,79.90
2023-02-11T17:21:54.991Z,80.20
2023-02-11T17:24:22.254Z,80.10
2023-02-11T17:26:50.113Z,80.20
2023-02-11T17:29:19.803Z,80.40
2023-02-11T17:31:46.635Z,80.40
2023-02-11T17:34:13.465Z,81.00
2023-02-11T17:36:41.348Z,80.70
2023-02-11T17:39:08.834Z,80.90
2023-02-11T17:41:37.917Z,80.60
2023-02-11T17:44:05.199Z,80.50
2023-02-11T17:46:32.315Z,80.40
2023-02-11T17:48:59.514Z,80.50
2023-02-11T17:51:35.829Z,80.50
2023-02-11T17:54:08.527Z,80.60
2023-02-11T17:56:36.721Z,80.90
2023-02-11T17:59:04.814Z,80.50
2023-02-11T18:01:33.266Z,80.40
2023-02-11T18:04:00.554Z,80.50
2023-02-11T18:06:29.037Z,80.50
2023-02-11T18:08:59.561Z,80.40
2023-02-11T18:11:27.797Z,80.40
2023-02-11T18:13:54.915Z,80.60
2023-02-11T18:16:23.096Z,80.50
2023-02-11T18:18:50.677Z,80.90
2023-02-11T18:21:21.748Z,80.70
2023-02-11T18:23:49.100Z,80.80
2023-02-11T18:26:17.818Z,80.50
2023-02-11T18:28:46.004Z,81.00
2023-02-11T18:31:14.286Z,80.90
2023-02-11T18:33:42.589Z,81.00
2023-02-11T18:36:12.987Z,81.20
2023-02-11T18:38:40.405Z,81.40
2023-02-11T18:41:07.400Z,81.70
2023-02-11T18:43:34.755Z,81.50
2023-02-11T18:46:06.067Z,81.50
2023-02-11T18:48:32.832Z,81.50
2023-02-11T18:50:59.576Z,81.80
2023-02-11T18:53:26.607Z,81.50
2023-02-11T18:55:54.154Z,81.80
2023-02-11T18:58:21.310Z,81.50
2023-02-11T19:00:49.091Z,81.60
2023-02-11T19:03:16.300Z,81.90
2023-02-11T19:05:44.755Z,82.30
2023-02-11T19:08:11.820Z,82.10
2023-02-11T19:10:46.880Z,82.00
2023-02-11T19:13:14.243Z,81.80
2023-02-11T19:15:45.432Z,81.80
2023-02-11T19:18:13.958Z,82.00
2023-02-11T19:20:42.235Z,81.40
2023-02-11T19:23:09.697Z,81.30
2023-02-11T19:25:37.287Z,81.00
2023-02-11T19:28:04.111Z,81.40
2023-02-11T19:30:30.992Z,81.50
2023-02-11T19:32:57.913Z,81.10
2023-02-11T19:35:25.422Z,81.30
2023-02-11T19:37:52.328Z,81.00
2023-02-11T19:40:21.135Z,80.90
2023-02-11T19:42:48.006Z,80.60
2023-02-11T19:45:14.857Z,81.10
2023-02-11T19:47:41.574Z,80.70
2023-02-11T19:50:08.882Z,80.90
2023-02-11T19:52:38.605Z,81.10
2023-02-11T19:55:05.701Z,80.60
2023-02-11T19:57:32.469Z,80.50
2023-02-11T19:59:59.341Z,81.10
2023-02-11T20:02:26.284Z,81.70
2023-02-11T20:04:53.126Z,81.10
2023-02-11T20:07:19.991Z,81.10
2023-02-11T20:09:46.686Z,81.00
2023-02-11T20:12:13.689Z,81.20
2023-02-11T20:14:40.705Z,81.30
2023-02-11T20:17:07.530Z,81.90
2023-02-11T20:19:34.355Z,82.20
2023-02-11T20:22:01.069Z,82.10
2023-02-11T20:24:27.753Z,82.40
2023-02-11T20:26:55.884Z,82.80
2023-02-11T20:29:24.170Z,82.40
2023-02-11T20:31:51.328Z,82.80
2023-02-11T20:34:18.720Z,83.10
2023-02-11T20:36:51.947Z,83.20
2023-02-11T20:39:21.738Z,82.90
2023-02-11T20:41:49.238Z,83.20
2023-02-11T20:44:16.042Z,83.50
2023-02-11T20:46:46.433Z,83.30
2023-02-11T20:49:15.422Z,83.40
2023-02-11T20:51:42.315Z,83.40
2023-02-11T20:54:13.236Z,83.60
2023-02-11T20:56:40.064Z,83.60
2023-02-11T20:59:06.854Z,83.40
2023-02-11T21:01:42.711Z,83.70
2023-02-11T21:04:25.526Z,83.90
2023-02-11T21:06:55.393Z,84.10
2023-02-11T21:09:25.314Z,84.40
2023-02-11T21:11:53.083Z,84.40
2023-02-11T21:14:22.168Z,84.70
2023-02-11T21:16:49.708Z,84.70
2023-02-11T21:19:20.215Z,84.80
2023-02-11T21:21:47.248Z,85.10
2023-02-11T21:24:14.006Z,84.80
2023-02-11T21:26:40.894Z,85.00
2023-02-11T21:29:08.335Z,85.20
2023-02-11T21:31:36.059Z,85.20
2023-02-11T21:34:03.494Z,85.50
2023-02-11T21:36:30.675Z,85.60
2023-02-11T21:38:57.495Z,86.10
2023-02-11T21:41:24.836Z,86.10
2023-02-11T21:43:52.386Z,86.30
2023-02-11T21:46:20.715Z,86.30
2023-02-11T21:48:47.835Z,86.10
2023-02-11T21:51:21.401Z,86.20
2023-02-11T21:53:48.308Z,85.80
2023-02-11T21:56:17.415Z,85.50
2023-02-11T21:58:45.429Z,85.30
2023-02-11T22:01:17.672Z,85.10
2023-02-11T22:03:46.221Z,85.30
2023-02-11T22:06:15.692Z,86.00
2023-02-11T22:08:42.502Z,85.70
2023-02-11T22:11:11.098Z,85.80
2023-02-11T22:13:38.479Z,85.90
2023-02-11T22:16:08.286Z,86.30
2023-02-11T22:18:35.325Z,86.30
2023-02-11T22:21:09.655Z,87.00
2023-02-11T22:23:38.296Z,86.70
2023-02-11T22:26:08.349Z,87.20
2023-02-11T22:28:36.995Z,87.60
2023-02-11T22:31:04.195Z,87.90
2023-02-11T22:33:31.242Z,87.80
2023-02-11T22:36:07.258Z,87.80
2023-02-11T22:38:34.846Z,87.80
2023-02-11T22:41:07.168Z,87.90
2023-02-11T22:43:34.109Z,87.90
2023-02-11T22:46:02.118Z,88.30
2023-02-11T22:48:28.928Z,88.30
2023-02-11T22:50:55.756Z,88.30
2023-02-11T22:53:25.416Z,88.00
2023-02-11T22:55:52.628Z,88.10
2023-02-11T22:58:19.483Z,88.40
2023-02-11T23:00:46.185Z,88.50
2023-02-11T23:03:13.393Z,88.50
2023-02-11T23:05:41.914Z,88.00
2023-02-11T23:08:11.660Z,88.00
2023-02-11T23:10:40.068Z,88.20
2023-02-11T23:13:08.390Z,87.90
2023-02-11T23:15:39.828Z,87.90
2023-02-11T23:18:07.319Z,87.90
2023-02-11T23:20:36.028Z,88.00
2023-02-11T23:23:03.503Z,87.90
2023-02-11T23:25:31.281Z,88.10
2023-02-11T23:27:58.295Z,87.60
2023-02-11T23:30:25.125Z,87.60
2023-02-11T23:32:52.273Z,87.80
2023-02-11T23:35:22.938Z,87.50
2023-02-11T23:37:51.250Z,87.60
2023-02-11T23:40:19.269Z,87.70
2023-02-11T23:42:47.510Z,87.80
2023-02-11T23:45:15.111Z,87.00
2023-02-11T23:47:41.867Z,86.30
2023-02-11T23:50:09.700Z,86.20
2023-02-11T23:52:36.509Z,86.40
2023-02-11T23:55:03.809Z,86.10
2023-02-11T23:57:32.821Z,85.70
2023-02-11T23:59:59.552Z,85.50
